aviador You're here:

OEMA Decoded Metar

MADINAH in SAUDI ARABIA
Report Time2017-12-17 00:00:00
UTC Time2017-12-17 00:25:59
Flight Rules vfr VFR
Wind090° at 05 kt
W.Decomp.*RWY 17: 0.6 kt HW 5 kt LCW
RWY 36: 0.3 kt HW 5.0 kt RCW
W.Rank090° ranks 12
Current wind is below 090° avg. (7.6)
Visibility9999 m
Phenomena:N/A
Clouds:N/A
Expected CloudBase > 8,000 ft AGL from Temp-Dew spread
CeilingNone
Temp15°C (ISA +4)
Dew Point-5°C (25% RH)
AAT10.6°C
QNH1024 hPa
Density Alt2,247 ft
Elevation2,070 ft
Report Wrong Elevation
Raw Report
METAR OEMA 170000Z 09005KT CAVOK 15/M05 Q1024 NOSIG=

Extra information for OEMA:More info

Metar Taf Metar & Taf Last 4 Metars F.Rules Stats Wind Profile Meteogram Temp Stats Airport Information Weather charts Add Link Nearby VenuesMetar ALERT Operation Metar Decoded Social comments